Time;durP1;ratioP1;P1;durP2;ratioP2;P2;SDS_P1;SDS_P2;PMS_P1;PMS_P2;Temp;Humidity;BMP_temperature;BMP_pressure;BME280_temperature;BME280_humidity;BME280_pressure;Samples;Min_cycle;Max_cycle;Signal;HPM_P1;HPM_P2
2023/03/09 00:01:36;;;;;;;12.73;10.65;;;;;;;7.52;100.00;94714.56;5047285;28;20055;-59
2023/03/09 00:04:03;;;;;;;9.77;8.98;;;;;;;7.68;100.00;94715.69;5049266;28;20142;-65
2023/03/09 00:06:29;;;;;;;9.15;8.25;;;;;;;7.54;100.00;94719.66;5045445;28;20401;-68
2023/03/09 00:08:55;;;;;;;27.95;25.35;;;;;;;7.41;100.00;94730.47;5046657;28;20116;-60
2023/03/09 00:11:20;;;;;;;36.28;33.08;;;;;;;7.44;100.00;94719.69;5038491;28;20101;-60
2023/03/09 00:13:48;;;;;;;20.67;18.80;;;;;;;7.49;100.00;94717.47;5038206;28;20104;-59
2023/03/09 00:16:21;;;;;;;11.07;9.52;;;;;;;7.41;100.00;94707.75;5041001;28;20041;-59
2023/03/09 00:18:48;;;;;;;9.80;6.88;;;;;;;7.35;100.00;94704.88;5035596;28;20113;-59
2023/03/09 00:21:34;;;;;;;9.63;6.55;;;;;;;7.33;100.00;94707.63;5046596;28;20115;-59
2023/03/09 00:24:02;;;;;;;6.85;6.22;;;;;;;7.28;100.00;94718.53;5044116;28;20100;-63
2023/03/09 00:26:28;;;;;;;8.68;6.93;;;;;;;7.33;100.00;94719.91;5040332;28;20041;-68
2023/03/09 00:28:53;;;;;;;11.35;10.25;;;;;;;7.24;100.00;94725.03;5046664;28;20017;-64
2023/03/09 00:31:18;;;;;;;10.18;9.27;;;;;;;7.22;100.00;94720.94;5042926;28;20510;-64
2023/03/09 00:33:47;;;;;;;8.43;7.18;;;;;;;7.30;100.00;94721.84;5038976;28;20039;-64
2023/03/09 00:36:14;;;;;;;7.25;6.68;;;;;;;7.17;100.00;94737.88;5026672;28;20036;-64
2023/03/09 00:38:39;;;;;;;6.25;5.65;;;;;;;7.15;100.00;94734.59;5045797;28;20116;-64
2023/03/09 00:41:05;;;;;;;6.43;5.90;;;;;;;7.09;100.00;94729.94;5033853;28;20461;-64
2023/03/09 00:43:30;;;;;;;6.90;5.70;;;;;;;7.04;100.00;94726.94;5036018;28;20480;-63
2023/03/09 00:45:55;;;;;;;9.55;5.85;;;;;;;7.09;100.00;94721.28;5039060;28;20040;-67
2023/03/09 00:48:21;;;;;;;6.30;5.72;;;;;;;7.03;100.00;94731.31;5037857;28;20384;-58
2023/03/09 00:50:46;;;;;;;6.15;5.57;;;;;;;6.99;100.00;94727.34;5043168;28;20037;-57
2023/03/09 00:53:11;;;;;;;6.10;5.53;;;;;;;6.98;100.00;94719.66;5042755;28;20103;-56
2023/03/09 00:55:37;;;;;;;5.65;5.20;;;;;;;6.97;100.00;94728.47;5045072;28;20025;-58
2023/03/09 00:58:02;;;;;;;6.03;5.25;;;;;;;6.96;100.00;94730.25;5041011;28;20517;-59
2023/03/09 01:00:27;;;;;;;7.78;6.65;;;;;;;6.95;100.00;94748.69;5044053;28;20049;-58
2023/03/09 01:02:53;;;;;;;9.35;7.57;;;;;;;7.13;100.00;94739.13;5044683;28;20145;-67
2023/03/09 01:05:19;;;;;;;11.82;10.63;;;;;;;6.93;100.00;94742.78;5045167;28;20028;-71
2023/03/09 01:07:45;;;;;;;14.23;11.35;;;;;;;6.73;100.00;94751.53;5038376;28;20037;-63
2023/03/09 01:10:11;;;;;;;12.00;10.85;;;;;;;6.66;100.00;94749.63;5043085;28;20052;-64
2023/03/09 01:12:37;;;;;;;12.18;10.93;;;;;;;6.54;100.00;94741.94;5045292;28;20479;-64
2023/03/09 01:15:03;;;;;;;12.50;11.30;;;;;;;6.58;100.00;94732.84;5042242;28;20027;-64
2023/03/09 01:17:28;;;;;;;13.80;10.93;;;;;;;6.38;100.00;94734.66;5040167;28;20518;-64
2023/03/09 01:19:54;;;;;;;12.05;10.88;;;;;;;6.23;100.00;94744.72;5047355;28;20394;-64
2023/03/09 01:22:19;;;;;;;10.65;9.65;;;;;;;6.16;100.00;94738.41;5044285;28;20024;-64
2023/03/09 01:24:44;;;;;;;10.85;9.82;;;;;;;6.22;100.00;94748.28;5057874;28;20029;-62
2023/03/09 01:27:10;;;;;;;11.10;10.02;;;;;;;6.17;100.00;94740.03;5044051;28;20102;-64
2023/03/09 01:29:35;;;;;;;8.77;7.97;;;;;;;6.06;100.00;94730.56;5036005;28;20029;-64
2023/03/09 01:32:01;;;;;;;8.88;7.97;;;;;;;5.99;100.00;94729.44;5051888;28;20096;-64
2023/03/09 01:34:26;;;;;;;7.35;6.65;;;;;;;5.95;100.00;94733.25;5048285;28;20033;-64
2023/03/09 01:36:52;;;;;;;6.88;6.35;;;;;;;6.09;100.00;94717.22;5050945;28;20036;-64
2023/03/09 01:39:18;;;;;;;8.18;5.35;;;;;;;6.02;100.00;94705.66;5042469;28;20520;-64
2023/03/09 01:41:43;;;;;;;4.53;4.18;;;;;;;6.43;100.00;94708.94;5048930;28;20021;-64
2023/03/09 01:44:12;;;;;;;4.03;3.65;;;;;;;6.48;100.00;94707.69;5050789;28;20116;-64
2023/03/09 01:46:48;;;;;;;5.53;3.33;;;;;;;6.56;100.00;94702.56;5044737;28;20493;-67
2023/03/09 01:49:28;;;;;;;3.03;2.72;;;;;;;6.86;100.00;94698.88;5043986;28;20398;-67
2023/03/09 01:52:12;;;;;;;3.13;2.78;;;;;;;6.94;100.00;94679.03;5039970;28;20053;-67
2023/03/09 01:54:45;;;;;;;2.22;2.00;;;;;;;6.86;100.00;94688.44;5028634;28;20734;-68
2023/03/09 01:57:29;;;;;;;2.45;1.92;;;;;;;7.01;100.00;94695.81;5046428;28;20565;-66
2023/03/09 02:00:05;;;;;;;2.28;2.08;;;;;;;7.09;100.00;94698.53;5050094;28;20119;-67
2023/03/09 02:02:33;;;;;;;3.03;2.45;;;;;;;6.98;100.00;94693.50;5043844;28;20668;-60
2023/03/09 02:05:03;;;;;;;2.10;1.95;;;;;;;7.01;100.00;94693.19;5048906;28;20078;-67
2023/03/09 02:07:34;;;;;;;2.67;1.50;;;;;;;7.11;100.00;94686.09;5035608;28;20095;-67
2023/03/09 02:10:08;;;;;;;2.00;1.80;;;;;;;7.05;100.00;94681.47;5033918;28;20411;-67
2023/03/09 02:12:34;;;;;;;2.00;1.90;;;;;;;6.95;100.00;94698.97;5029668;28;20075;-67
2023/03/09 02:15:01;;;;;;;4.63;1.70;;;;;;;7.22;100.00;94700.00;5041192;28;20039;-67
2023/03/09 02:17:27;;;;;;;1.73;1.63;;;;;;;7.20;100.00;94696.69;5036073;28;20071;-67
2023/03/09 02:20:15;;;;;;;4.47;2.28;;;;;;;6.91;100.00;94710.72;5042526;28;20414;-65
2023/03/09 02:22:42;;;;;;;2.38;2.17;;;;;;;6.74;100.00;94718.34;5042996;28;20049;-64
2023/03/09 02:25:32;;;;;;;3.58;2.47;;;;;;;6.54;100.00;94715.78;5042819;28;20056;-57
2023/03/09 02:27:59;;;;;;;3.08;2.30;;;;;;;6.52;100.00;94703.81;5040271;28;20025;-56
2023/03/09 02:30:28;;;;;;;2.55;2.28;;;;;;;6.48;100.00;94710.28;5044832;28;20025;-58
2023/03/09 02:33:09;;;;;;;3.28;2.25;;;;;;;6.36;100.00;94714.84;5042867;28;20025;-55
2023/03/09 02:35:35;;;;;;;3.72;2.83;;;;;;;6.29;100.00;94722.44;5041935;28;20020;-57
2023/03/09 02:38:00;;;;;;;3.47;3.17;;;;;;;6.27;100.00;94721.75;5046596;28;20082;-58
2023/03/09 02:40:35;;;;;;;3.60;3.13;;;;;;;6.24;100.00;94715.00;5049246;28;20049;-67
2023/03/09 02:43:03;;;;;;;3.78;3.30;;;;;;;6.32;100.00;94739.63;5048783;28;20427;-69
2023/03/09 02:45:30;;;;;;;3.97;3.55;;;;;;;6.14;100.00;94717.63;5042703;28;20561;-69
2023/03/09 02:47:57;;;;;;;4.97;3.00;;;;;;;5.98;100.00;94715.53;5042050;28;20036;-69
2023/03/09 02:50:22;;;;;;;3.70;3.42;;;;;;;6.05;100.00;94741.13;5046613;28;20025;-69
2023/03/09 02:52:48;;;;;;;3.83;3.50;;;;;;;5.93;100.00;94728.19;5043552;28;20029;-70
2023/03/09 02:55:14;;;;;;;3.13;2.90;;;;;;;5.92;100.00;94736.16;5042647;28;20078;-69
2023/03/09 02:57:41;;;;;;;3.78;3.22;;;;;;;5.91;100.00;94745.78;5044738;28;20068;-69
2023/03/09 03:00:10;;;;;;;3.60;2.97;;;;;;;5.77;100.00;94754.00;5042539;28;20029;-63
2023/03/09 03:02:37;;;;;;;3.92;3.40;;;;;;;5.63;100.00;94732.53;5043166;28;20151;-64
2023/03/09 03:05:03;;;;;;;4.60;3.30;;;;;;;5.56;100.00;94747.09;5044476;28;20021;-63
2023/03/09 03:07:28;;;;;;;5.82;3.92;;;;;;;5.55;100.00;94743.69;5027551;28;20070;-63
2023/03/09 03:09:53;;;;;;;5.22;4.72;;;;;;;5.41;100.00;94739.63;5039280;28;20409;-63
2023/03/09 03:12:19;;;;;;;8.20;5.20;;;;;;;5.33;100.00;94736.06;5045821;28;20556;-63
2023/03/09 03:14:44;;;;;;;5.60;5.18;;;;;;;5.23;100.00;94736.84;5046654;28;20021;-63
2023/03/09 03:17:10;;;;;;;6.55;5.07;;;;;;;5.17;100.00;94750.44;5033609;28;20031;-63
2023/03/09 03:19:36;;;;;;;4.93;4.53;;;;;;;5.14;100.00;94753.31;5042455;28;20098;-67
2023/03/09 03:22:02;;;;;;;8.55;4.82;;;;;;;5.22;100.00;94760.50;5045692;28;20514;-62
2023/03/09 03:24:28;;;;;;;6.38;4.82;;;;;;;5.08;100.00;94741.59;5051931;28;20067;-62
2023/03/09 03:26:53;;;;;;;7.55;5.72;;;;;;;5.14;100.00;94759.34;5053361;28;20523;-63
2023/03/09 03:29:19;;;;;;;6.03;5.43;;;;;;;5.25;100.00;94739.34;5060537;28;20033;-62
2023/03/09 03:31:44;;;;;;;5.22;4.60;;;;;;;5.33;100.00;94760.38;5050226;28;20029;-63
2023/03/09 03:34:09;;;;;;;6.28;5.68;;;;;;;5.33;100.00;94762.16;5034288;28;20383;-62
2023/03/09 03:36:35;;;;;;;39.33;26.45;;;;;;;5.27;100.00;94755.69;5063731;28;20020;-62
2023/03/09 03:39:00;;;;;;;22.15;13.40;;;;;;;5.30;100.00;94768.47;5059883;28;20425;-63
2023/03/09 03:41:25;;;;;;;16.63;9.57;;;;;;;5.35;100.00;94755.03;5052596;28;20482;-62
2023/03/09 03:43:51;;;;;;;8.50;5.50;;;;;;;5.29;100.00;94766.81;5052154;28;20147;-62
2023/03/09 03:46:16;;;;;;;4.88;3.30;;;;;;;5.25;100.00;94766.25;5052754;28;20024;-62
2023/03/09 03:48:42;;;;;;;41.88;25.85;;;;;;;5.38;100.00;94770.44;5056255;28;20435;-63
2023/03/09 03:51:08;;;;;;;17.10;13.48;;;;;;;5.39;100.00;94785.13;5033438;28;20031;-62
2023/03/09 03:53:34;;;;;;;5.80;5.28;;;;;;;5.37;100.00;94779.22;5053571;28;20021;-62
2023/03/09 03:56:00;;;;;;;5.35;4.85;;;;;;;5.27;100.00;94776.56;5061085;28;20101;-62
2023/03/09 03:58:25;;;;;;;3.58;3.20;;;;;;;5.15;100.00;94779.25;5050692;28;20049;-70
2023/03/09 04:00:51;;;;;;;8.57;7.53;;;;;;;5.22;100.00;94797.03;5039457;28;20045;-58
2023/03/09 04:03:16;;;;;;;13.85;6.25;;;;;;;5.13;100.00;94789.00;5044961;28;20028;-58
2023/03/09 04:05:42;;;;;;;15.80;10.38;;;;;;;5.07;100.00;94786.94;5049644;28;20021;-59
2023/03/09 04:08:07;;;;;;;14.00;8.80;;;;;;;4.98;100.00;94796.34;5033147;28;20021;-58
2023/03/09 04:10:32;;;;;;;9.05;5.65;;;;;;;4.94;100.00;94783.69;5032136;28;20108;-58
2023/03/09 04:12:59;;;;;;;8.38;5.70;;;;;;;4.93;100.00;94792.47;5043968;28;20100;-58
2023/03/09 04:15:25;;;;;;;5.25;4.63;;;;;;;5.06;100.00;94795.72;5046850;28;20110;-58
2023/03/09 04:17:51;;;;;;;5.32;4.72;;;;;;;5.05;100.00;94803.66;5051358;28;20048;-64
2023/03/09 04:20:16;;;;;;;6.63;5.43;;;;;;;5.26;100.00;94811.47;5050492;28;20435;-63
2023/03/09 04:22:42;;;;;;;7.30;5.90;;;;;;;5.04;100.00;94808.06;5033529;28;20034;-63
2023/03/09 04:25:07;;;;;;;6.20;5.68;;;;;;;4.97;100.00;94819.94;5048781;28;21573;-62
2023/03/09 04:27:33;;;;;;;6.57;5.18;;;;;;;4.87;100.00;94825.94;5051283;28;20056;-63
2023/03/09 04:29:58;;;;;;;5.75;5.18;;;;;;;4.83;100.00;94814.13;5049573;28;20486;-63
2023/03/09 04:32:23;;;;;;;6.60;5.60;;;;;;;4.76;100.00;94823.41;5048817;28;20113;-63
2023/03/09 04:34:49;;;;;;;26.90;21.38;;;;;;;4.69;100.00;94827.47;5056670;28;20021;-62
2023/03/09 04:37:14;;;;;;;7.95;5.32;;;;;;;4.60;100.00;94831.66;5056567;28;20041;-67
2023/03/09 04:39:39;;;;;;;8.20;5.25;;;;;;;4.55;100.00;94834.66;5042458;28;20124;-64
2023/03/09 04:42:05;;;;;;;13.38;9.75;;;;;;;4.58;100.00;94829.19;5044324;28;20060;-64
2023/03/09 04:44:30;;;;;;;11.38;7.63;;;;;;;4.71;100.00;94828.16;5052827;28;20056;-63
2023/03/09 06:33:02;;;;;;;7.43;6.68;;;;;;;3.49;100.00;94912.41;5065364;28;20142;-60
2023/03/09 06:35:27;;;;;;;7.07;6.38;;;;;;;3.60;100.00;94908.19;5066681;28;20052;-64
2023/03/09 06:37:52;;;;;;;10.13;6.30;;;;;;;3.67;100.00;94918.00;5068687;28;20040;-59
2023/03/09 06:40:18;;;;;;;12.00;7.78;;;;;;;3.57;100.00;94909.22;5066919;28;20047;-60
2023/03/09 06:42:45;;;;;;;12.15;9.75;;;;;;;3.60;100.00;94914.19;5068207;28;20064;-59
2023/03/09 06:45:10;;;;;;;12.27;10.50;;;;;;;3.51;100.00;94914.91;5068145;28;20036;-60
2023/03/09 06:47:36;;;;;;;16.80;11.95;;;;;;;3.57;100.00;94920.50;5068492;28;20540;-59
2023/03/09 06:50:01;;;;;;;14.75;12.48;;;;;;;3.50;100.00;94916.69;5067747;28;20039;-60
2023/03/09 06:52:27;;;;;;;16.83;14.45;;;;;;;3.48;100.00;94908.16;5066766;28;20112;-67
2023/03/09 06:54:53;;;;;;;24.42;19.50;;;;;;;3.50;100.00;94908.06;5076466;28;20115;-65
2023/03/09 06:57:18;;;;;;;48.78;36.88;;;;;;;3.50;100.00;94905.47;5085218;28;20032;-66
2023/03/09 06:59:44;;;;;;;32.20;28.45;;;;;;;3.54;100.00;94909.47;5085974;28;20040;-70
2023/03/09 07:02:13;;;;;;;28.42;25.15;;;;;;;3.51;100.00;94904.50;5071836;28;20158;-67
2023/03/09 07:04:40;;;;;;;29.90;26.88;;;;;;;3.53;100.00;94913.03;5066550;28;20040;-69
2023/03/09 07:07:05;;;;;;;36.55;27.13;;;;;;;3.53;100.00;94910.44;5071102;28;20037;-66
2023/03/09 07:09:31;;;;;;;23.00;20.50;;;;;;;3.52;100.00;94917.38;5071267;28;20044;-67
2023/03/09 07:11:58;;;;;;;38.35;32.42;;;;;;;3.46;100.00;94917.88;5070865;28;20462;-68
2023/03/09 07:14:24;;;;;;;29.38;24.05;;;;;;;3.42;100.00;94914.66;5072516;28;20076;-64
2023/03/09 07:16:54;;;;;;;22.15;19.85;;;;;;;3.43;100.00;94920.72;5069974;28;20044;-60
2023/03/09 07:19:20;;;;;;;28.40;22.48;;;;;;;3.48;100.00;94928.16;5073392;28;20119;-60
2023/03/09 07:21:45;;;;;;;19.33;14.25;;;;;;;3.93;100.00;94935.97;5092517;28;20154;-59
2023/03/09 07:24:11;;;;;;;26.77;18.73;;;;;;;4.30;100.00;94943.50;5073563;28;20178;-60
2023/03/09 07:26:36;;;;;;;37.85;20.85;;;;;;;4.08;100.00;94943.53;5072369;28;20039;-59
2023/03/09 07:29:02;;;;;;;27.63;18.40;;;;;;;3.99;100.00;94945.91;5069810;28;20038;-60
2023/03/09 07:31:29;;;;;;;30.92;19.67;;;;;;;3.90;100.00;94951.00;5075808;28;20028;-65
2023/03/09 07:33:55;;;;;;;26.33;19.10;;;;;;;3.86;100.00;94945.19;5075314;28;20105;-60
2023/03/09 07:36:20;;;;;;;19.40;17.27;;;;;;;3.83;100.00;94946.28;5074005;28;20035;-68
2023/03/09 07:38:47;;;;;;;18.73;16.75;;;;;;;3.89;100.00;94958.00;5070191;28;20028;-68
2023/03/09 07:41:13;;;;;;;80.22;48.58;;;;;;;3.94;100.00;94948.06;5081476;28;20123;-68
2023/03/09 07:43:43;;;;;;;68.72;39.58;;;;;;;3.99;100.00;94955.53;5081738;28;20120;-68
2023/03/09 07:46:14;;;;;;;58.05;36.97;;;;;;;4.03;100.00;94956.09;5069161;28;20056;-68
2023/03/09 07:48:41;;;;;;;55.95;32.88;;;;;;;4.01;100.00;94964.03;5071592;28;20080;-68
2023/03/09 07:51:07;;;;;;;54.33;32.30;;;;;;;4.05;100.00;94972.41;5090592;28;20510;-65
2023/03/09 07:53:35;;;;;;;51.28;30.85;;;;;;;4.29;100.00;94965.28;5087404;28;20032;-64
2023/03/09 07:56:03;;;;;;;51.05;27.33;;;;;;;4.95;100.00;94962.72;5073120;28;20036;-65
2023/03/09 07:58:29;;;;;;;42.25;23.48;;;;;;;5.72;100.00;94961.59;5063103;28;20036;-64
2023/03/09 08:00:55;;;;;;;29.50;16.17;;;;;;;6.24;100.00;94965.13;5067511;28;20085;-64
2023/03/09 08:03:20;;;;;;;19.60;11.93;;;;;;;6.61;100.00;94961.06;5072134;28;20040;-65
2023/03/09 08:05:47;;;;;;;18.50;7.80;;;;;;;7.04;100.00;94965.09;5069176;28;20420;-65
2023/03/09 08:08:12;;;;;;;18.77;10.60;;;;;;;7.36;100.00;94971.00;5056832;28;20565;-64
2023/03/09 08:10:37;;;;;;;14.98;8.40;;;;;;;7.70;100.00;94978.38;5070430;28;20107;-65
2023/03/09 08:13:03;;;;;;;15.80;6.90;;;;;;;8.00;100.00;94979.94;5064085;28;20064;-60
2023/03/09 08:15:29;;;;;;;10.57;5.65;;;;;;;8.18;100.00;94981.81;5060113;28;20039;-60
2023/03/09 08:17:54;;;;;;;14.38;5.70;;;;;;;8.34;100.00;94980.38;5070978;28;20043;-59
2023/03/09 08:20:20;;;;;;;9.57;5.47;;;;;;;8.54;99.84;94968.84;5070520;28;20029;-60
2023/03/09 08:22:45;;;;;;;10.88;6.75;;;;;;;8.55;96.20;94978.38;5067847;28;20060;-60
2023/03/09 08:25:10;;;;;;;10.75;6.78;;;;;;;8.75;95.53;94967.75;5044505;28;20045;-60
2023/03/09 08:27:44;;;;;;;10.07;8.20;;;;;;;8.90;95.05;94970.69;5060133;28;20040;-60
2023/03/09 08:30:11;;;;;;;9.43;4.82;;;;;;;8.88;94.52;94977.88;5071052;28;20506;-69
2023/03/09 08:32:37;;;;;;;31.83;23.83;;;;;;;9.21;93.77;94977.38;5058111;28;20037;-60
2023/03/09 08:35:03;;;;;;;5.28;3.38;;;;;;;9.26;90.23;94981.16;5058328;28;20051;-60
2023/03/09 08:37:28;;;;;;;9.80;4.90;;;;;;;9.48;88.73;94988.72;5068124;28;20037;-60
2023/03/09 08:39:53;;;;;;;4.95;1.98;;;;;;;9.52;84.81;94995.34;5052477;28;20090;-60
2023/03/09 08:42:19;;;;;;;4.50;1.98;;;;;;;9.87;83.45;94996.25;5065211;28;20071;-61
2023/03/09 08:44:44;;;;;;;5.68;3.55;;;;;;;10.04;82.41;95003.22;5064704;28;20116;-59
2023/03/09 08:47:09;;;;;;;4.90;3.33;;;;;;;10.01;82.95;94997.47;5074734;28;20063;-59
2023/03/09 08:49:37;;;;;;;4.18;2.67;;;;;;;9.94;77.84;95004.31;5071466;28;20513;-60
2023/03/09 08:52:02;;;;;;;3.88;2.55;;;;;;;10.07;81.44;95006.56;5058251;28;20036;-60
2023/03/09 08:54:28;;;;;;;5.80;3.00;;;;;;;10.25;79.17;95011.75;5062159;28;20032;-59
2023/03/09 08:56:53;;;;;;;7.28;3.83;;;;;;;10.49;75.07;95016.31;5064288;28;20074;-59
2023/03/09 08:59:18;;;;;;;6.00;3.58;;;;;;;10.30;75.01;95022.63;5069383;28;20069;-59
2023/03/09 09:01:44;;;;;;;6.72;3.13;;;;;;;10.11;75.89;95026.31;5060236;28;20083;-60
2023/03/09 09:04:09;;;;;;;6.85;4.30;;;;;;;10.02;74.12;95023.59;5068975;28;20085;-59
2023/03/09 09:06:34;;;;;;;6.35;4.15;;;;;;;10.01;72.61;95026.41;5062515;28;20033;-59
2023/03/09 09:09:00;;;;;;;7.00;4.88;;;;;;;10.12;75.85;95018.25;5064762;28;20493;-60
2023/03/09 09:11:25;;;;;;;5.28;2.38;;;;;;;10.27;76.98;95010.59;5058560;28;20510;-63
2023/03/09 09:13:52;;;;;;;3.70;3.10;;;;;;;10.44;78.90;95010.69;5071529;28;20032;-63
2023/03/09 09:16:17;;;;;;;4.95;2.33;;;;;;;10.42;79.30;95012.66;5061935;28;20380;-62
2023/03/09 09:19:35;;;;;;;2.33;1.67;;;;;;;10.28;79.55;95011.44;4983927;27;1278620;-62
2023/03/09 09:22:02;;;;;;;4.63;2.03;;;;;;;10.45;78.99;95007.94;5033117;28;20121;-62
2023/03/09 09:24:32;;;;;;;2.63;2.13;;;;;;;10.31;79.57;95011.09;5035264;28;20044;-63
2023/03/09 09:26:58;;;;;;;3.05;2.20;;;;;;;10.28;78.57;95007.00;5032926;28;20109;-63
2023/03/09 09:29:23;;;;;;;3.03;2.72;;;;;;;10.22;78.93;95006.78;5035855;28;20051;-63
2023/03/09 09:31:49;;;;;;;4.15;2.90;;;;;;;10.35;77.30;95007.19;5036241;28;20376;-57
2023/03/09 09:34:17;;;;;;;7.32;2.90;;;;;;;10.34;77.19;95015.25;5035709;28;20549;-57
2023/03/09 09:36:43;;;;;;;5.65;2.75;;;;;;;10.56;76.34;95006.81;5035965;28;20039;-57
2023/03/09 09:39:09;;;;;;;4.88;2.58;;;;;;;10.89;74.01;95003.47;5037519;28;20025;-59
2023/03/09 09:41:42;;;;;;;2.45;2.25;;;;;;;10.84;73.88;95001.31;5035907;28;20037;-57
2023/03/09 09:44:14;;;;;;;4.93;2.60;;;;;;;10.93;74.36;94993.41;5033749;28;20100;-58
2023/03/09 09:46:40;;;;;;;4.05;2.65;;;;;;;10.79;73.28;95003.59;5036984;28;20034;-60
2023/03/09 09:49:06;;;;;;;6.75;3.05;;;;;;;10.89;73.14;94992.94;5033864;28;20096;-56
2023/03/09 09:52:10;;;;;;;18.92;10.75;;;;;;;10.80;70.35;95004.41;5032211;28;20067;-71
2023/03/09 09:54:50;;;;;;;9.50;4.72;;;;;;;10.86;70.63;95001.97;5036893;28;20033;-71
2023/03/09 09:57:39;;;;;;;4.30;2.63;;;;;;;11.21;66.33;95001.06;5033683;28;20029;-70
2023/03/09 10:00:16;;;;;;;3.20;2.30;;;;;;;11.34;65.44;94990.03;5038378;28;20051;-74
2023/03/09 10:02:47;;;;;;;2.20;2.05;;;;;;;11.51;64.32;94988.22;5035810;28;20063;-77
2023/03/09 10:05:34;;;;;;;3.22;2.92;;;;;;;11.90;67.79;94985.72;5032150;28;20052;-74
2023/03/09 10:08:29;;;;;;;2.13;1.98;;;;;;;12.23;64.40;94986.66;5037342;28;20440;-69
2023/03/09 10:11:03;;;;;;;3.63;2.10;;;;;;;12.19;62.38;94991.44;5036142;28;20051;-59
2023/03/09 10:13:34;;;;;;;2.92;2.03;;;;;;;12.15;62.08;94987.50;5033763;28;20033;-59
2023/03/09 10:16:06;;;;;;;3.30;2.95;;;;;;;12.15;62.89;94980.41;5037604;28;20037;-59
2023/03/09 10:18:37;;;;;;;2.45;2.25;;;;;;;12.12;62.01;94978.09;5031545;28;20050;-59
2023/03/09 10:21:09;;;;;;;2.97;2.58;;;;;;;12.31;61.94;94970.81;5037233;28;20034;-58
2023/03/09 10:23:35;;;;;;;3.05;2.08;;;;;;;12.64;64.02;94970.69;5034238;28;21158;-59
2023/03/09 10:26:26;;;;;;;2.15;1.95;;;;;;;12.90;63.47;94964.25;5034507;28;20093;-59
2023/03/09 10:28:57;;;;;;;2.72;2.15;;;;;;;13.13;61.85;94953.69;5023116;28;20045;-59
2023/03/09 10:31:34;;;;;;;2.80;2.47;;;;;;;13.15;63.31;94951.72;5017122;28;20486;-59
2023/03/09 10:34:25;;;;;;;2.92;2.20;;;;;;;13.19;60.96;94952.19;5014862;28;20148;-59
2023/03/09 10:37:04;;;;;;;2.45;2.10;;;;;;;12.98;57.25;94950.19;5022315;28;20199;-58
2023/03/09 10:39:39;;;;;;;3.00;2.00;;;;;;;12.98;58.48;94939.63;5023079;28;20116;-59
2023/03/09 10:42:14;;;;;;;;;;;;;;;12.90;58.60;94946.59;5024056;28;20457;-59
2023/03/09 10:44:45;;;;;;;2.07;1.93;;;;;;;13.01;57.32;94944.53;5022787;28;20291;-73
2023/03/09 10:47:11;;;;;;;3.72;2.20;;;;;;;12.89;62.26;94947.56;5025271;28;20014;-73
2023/03/09 10:49:36;;;;;;;2.50;2.28;;;;;;;12.98;62.50;94936.97;5025593;28;20129;-63
2023/03/09 10:52:05;;;;;;;4.05;2.38;;;;;;;13.04;62.41;94936.25;5021244;28;20061;-64
2023/03/09 10:54:39;;;;;;;4.03;2.38;;;;;;;13.10;63.06;94938.19;5024882;28;20080;-64
2023/03/09 10:57:33;;;;;;;4.85;3.08;;;;;;;13.09;60.87;94936.56;5025806;28;20141;-63
2023/03/09 11:00:11;;;;;;;3.75;2.83;;;;;;;13.12;64.63;94936.19;5018718;28;20453;-64
2023/03/09 11:02:36;;;;;;;4.72;2.67;;;;;;;13.18;64.35;94942.59;5024873;28;20036;-64
2023/03/09 11:05:23;;;;;;;2.97;2.65;;;;;;;13.04;64.68;94937.09;5017100;28;20112;-72
2023/03/09 11:07:53;;;;;;;3.33;2.95;;;;;;;13.00;66.53;94941.06;5022484;28;20034;-60
2023/03/09 11:10:26;;;;;;;3.33;2.47;;;;;;;12.86;64.22;94937.38;5018603;28;20087;-61
2023/03/09 11:12:52;;;;;;;3.17;2.88;;;;;;;12.73;65.57;94942.41;5020705;28;20038;-61
2023/03/09 11:15:18;;;;;;;3.30;2.65;;;;;;;12.84;65.67;94942.00;5022998;28;20079;-61
2023/03/09 11:17:45;;;;;;;3.53;3.00;;;;;;;13.27;67.72;94944.22;5020368;28;20505;-61
2023/03/09 11:20:34;;;;;;;4.55;3.40;;;;;;;13.91;64.74;94944.81;5019011;28;20778;-60
2023/03/09 11:23:45;;;;;;;4.18;3.25;;;;;;;14.24;61.32;94941.00;5019642;28;20025;-64
2023/03/09 11:26:25;;;;;;;3.13;2.50;;;;;;;14.80;59.05;94937.84;5017426;28;20530;-63
2023/03/09 11:29:29;;;;;;;3.72;2.53;;;;;;;15.83;53.09;94938.59;5020000;28;20028;-63
2023/03/09 11:31:54;;;;;;;4.22;1.77;;;;;;;16.15;51.13;94939.00;5019603;28;20034;-63
2023/03/09 11:34:30;;;;;;;4.22;2.00;;;;;;;16.15;49.37;94929.22;5016926;28;20112;-63
2023/03/09 11:37:05;;;;;;;3.80;2.30;;;;;;;16.07;47.76;94923.25;5021751;28;20025;-64
2023/03/09 11:39:33;;;;;;;;;;;;;;;16.12;51.14;94934.91;5022410;28;20065;-63
2023/03/09 11:42:01;;;;;;;2.45;2.25;;;;;;;15.67;48.69;94935.19;5015409;28;19921;-63
2023/03/09 11:44:35;;;;;;;3.58;2.40;;;;;;;15.43;50.94;94933.75;5018852;28;20091;-65
2023/03/09 11:47:35;;;;;;;3.92;2.50;;;;;;;15.36;51.59;94931.03;5013555;28;20510;-67
2023/03/09 11:50:12;;;;;;;4.93;3.53;;;;;;;15.52;50.42;94927.31;5013883;28;20526;-68
2023/03/09 11:52:47;;;;;;;4.13;2.65;;;;;;;14.76;55.35;94912.75;5022443;28;20062;-66
2023/03/09 11:55:17;;;;;;;2.85;2.25;;;;;;;14.51;55.96;94918.34;5018313;28;20025;-66
2023/03/09 11:57:50;;;;;;;3.40;2.30;;;;;;;14.40;58.82;94910.84;5025542;28;20716;-65
2023/03/09 12:00:20;;;;;;;4.70;2.47;;;;;;;14.56;56.76;94910.66;5019597;28;20030;-66
2023/03/09 12:03:03;;;;;;;3.30;2.47;;;;;;;15.02;54.77;94912.16;5016309;28;20033;-61
2023/03/09 12:05:41;;;;;;;3.47;2.90;;;;;;;15.06;54.82;94915.28;5022204;28;20033;-69
2023/03/09 12:08:24;;;;;;;6.72;2.80;;;;;;;14.86;54.76;94904.50;5024081;28;20056;-59
2023/03/09 12:11:20;;;;;;;5.72;2.72;;;;;;;15.07;56.20;94910.81;5016228;28;20057;-60
2023/03/09 12:13:52;;;;;;;4.25;2.38;;;;;;;15.75;51.30;94907.69;5021078;28;20048;-60
2023/03/09 12:16:35;;;;;;;2.50;2.30;;;;;;;15.55;53.75;94895.09;5017894;28;20018;-61
2023/03/09 12:19:05;;;;;;;4.05;3.05;;;;;;;15.56;54.58;94898.56;5019408;28;20038;-60
2023/03/09 12:21:59;;;;;;;3.33;2.60;;;;;;;15.79;50.84;94893.03;5017855;28;20032;-61
2023/03/09 12:24:30;;;;;;;2.45;2.25;;;;;;;15.92;49.55;94888.88;5017555;28;20040;-72
2023/03/09 12:27:00;;;;;;;3.42;2.50;;;;;;;15.94;49.07;94881.53;5024280;28;20029;-71
2023/03/09 12:29:32;;;;;;;3.55;2.30;;;;;;;16.26;46.50;94877.41;5016136;28;20030;-72
2023/03/09 12:32:19;;;;;;;3.88;2.67;;;;;;;15.86;50.09;94870.00;5015130;28;20115;-69
2023/03/09 12:34:46;;;;;;;2.97;2.10;;;;;;;15.85;47.74;94867.56;5022408;28;20104;-72
2023/03/09 12:37:27;;;;;;;4.75;2.38;;;;;;;15.96;42.67;94866.22;5019501;28;20057;-71
2023/03/09 12:40:05;;;;;;;5.60;1.60;;;;;;;15.73;38.70;94854.81;5017228;28;20034;-70
2023/03/09 12:42:39;;;;;;;5.43;2.53;;;;;;;15.94;44.07;94850.47;5015268;28;20029;-72
2023/03/09 12:45:10;;;;;;;3.50;2.83;;;;;;;15.72;49.00;94855.81;5015491;28;20033;-60
2023/03/09 12:47:51;;;;;;;3.25;2.50;;;;;;;15.38;50.92;94860.09;5017130;28;20054;-60
2023/03/09 12:50:24;;;;;;;3.42;2.30;;;;;;;15.21;50.50;94842.81;5019524;28;20031;-61
2023/03/09 12:53:02;;;;;;;2.72;2.47;;;;;;;15.33;47.93;94849.22;5021770;28;20025;-61
2023/03/09 12:55:33;;;;;;;10.82;3.25;;;;;;;15.38;48.19;94841.53;5014335;28;20495;-61
2023/03/09 12:58:17;;;;;;;4.30;3.00;;;;;;;15.55;44.78;94834.09;5017013;28;20036;-61
2023/03/09 13:00:54;;;;;;;4.00;2.28;;;;;;;15.49;42.71;94823.44;5016484;28;20060;-61
2023/03/09 13:03:31;;;;;;;5.30;2.85;;;;;;;15.81;43.82;94810.56;5016050;28;20034;-59
2023/03/09 13:06:20;;;;;;;6.18;2.22;;;;;;;15.42;46.05;94803.00;5019483;28;20092;-64
2023/03/09 13:08:52;;;;;;;3.90;3.17;;;;;;;15.69;46.92;94802.31;5007953;28;20034;-64
2023/03/09 13:11:24;;;;;;;5.95;2.28;;;;;;;15.68;45.15;94798.03;5015408;28;20021;-65
2023/03/09 13:13:53;;;;;;;3.50;2.50;;;;;;;15.60;47.54;94797.19;5020240;28;20498;-64
2023/03/09 13:16:31;;;;;;;3.50;2.47;;;;;;;15.80;47.51;94790.34;5020216;28;20380;-65
2023/03/09 13:19:23;;;;;;;3.20;2.50;;;;;;;16.14;44.86;94778.06;5019137;28;20046;-64
2023/03/09 13:21:55;;;;;;;4.05;2.40;;;;;;;16.13;42.85;94773.78;5020038;28;20048;-61
2023/03/09 13:24:24;;;;;;;2.15;1.92;;;;;;;16.11;40.68;94768.66;5019544;28;20044;-67
2023/03/09 13:26:54;;;;;;;1.98;1.80;;;;;;;16.08;39.52;94763.75;5016471;28;20141;-67
2023/03/09 13:29:25;;;;;;;3.72;1.83;;;;;;;16.27;38.98;94756.03;5020989;28;20593;-67